createdAt,value
2019-03-08T00:00:28.103Z,989.84
2019-03-08T00:01:28.075Z,989.88
2019-03-08T00:02:28.069Z,989.88
2019-03-08T00:03:28.075Z,989.87
2019-03-08T00:04:28.059Z,989.83
2019-03-08T00:05:28.063Z,989.87
2019-03-08T00:06:28.023Z,989.94
2019-03-08T00:07:28.016Z,989.88
2019-03-08T00:08:27.999Z,989.92
2019-03-08T00:09:27.994Z,989.93
2019-03-08T00:10:27.981Z,989.95
2019-03-08T00:11:28.011Z,989.90
2019-03-08T00:12:27.957Z,989.92
2019-03-08T00:13:27.948Z,989.83
2019-03-08T00:14:27.958Z,989.86
2019-03-08T00:15:27.924Z,989.86
2019-03-08T00:16:27.943Z,989.83
2019-03-08T00:17:27.904Z,989.79
2019-03-08T00:18:27.886Z,989.85
2019-03-08T00:19:27.880Z,989.76
2019-03-08T00:20:27.871Z,989.77
2019-03-08T00:21:27.887Z,989.78
2019-03-08T00:22:27.856Z,989.78
2019-03-08T00:23:27.834Z,989.77
2019-03-08T00:24:27.858Z,989.79
2019-03-08T00:25:27.831Z,989.75
2019-03-08T00:26:27.829Z,989.83
2019-03-08T00:27:27.793Z,989.80
2019-03-08T00:28:27.781Z,989.81
2019-03-08T00:29:27.768Z,989.77
2019-03-08T00:30:27.763Z,989.72
2019-03-08T00:31:27.749Z,989.72
2019-03-08T00:32:27.764Z,989.71
2019-03-08T00:33:27.767Z,989.82
2019-03-08T00:34:27.716Z,989.74
2019-03-08T00:35:27.699Z,989.81
2019-03-08T00:36:27.692Z,989.69
2019-03-08T00:37:27.713Z,989.79
2019-03-08T00:38:27.667Z,989.77
2019-03-08T00:39:27.655Z,989.79
2019-03-08T00:40:27.692Z,989.74
2019-03-08T00:41:27.632Z,989.69
2019-03-08T00:42:27.628Z,989.64
2019-03-08T00:43:27.633Z,989.57
2019-03-08T00:44:27.670Z,989.57
2019-03-08T00:45:27.590Z,989.56
2019-03-08T00:46:27.590Z,989.59
2019-03-08T00:47:27.568Z,989.61
2019-03-08T00:48:27.589Z,989.60
2019-03-08T00:49:27.550Z,989.59
2019-03-08T00:50:27.539Z,989.63
2019-03-08T00:51:27.529Z,989.61
2019-03-08T00:52:27.514Z,989.63
2019-03-08T00:53:27.538Z,989.66
2019-03-08T00:54:27.520Z,989.62
2019-03-08T00:55:27.490Z,989.59
2019-03-08T00:56:27.476Z,989.67
2019-03-08T00:57:27.461Z,989.57
2019-03-08T00:58:27.450Z,989.71
2019-03-08T00:59:27.472Z,989.63
2019-03-08T01:00:27.426Z,989.68
2019-03-08T01:01:27.435Z,989.69
2019-03-08T01:02:27.426Z,989.65
2019-03-08T01:03:27.416Z,989.69
2019-03-08T01:04:27.385Z,989.65
2019-03-08T01:05:27.390Z,989.68
2019-03-08T01:06:27.358Z,989.74
2019-03-08T01:07:27.353Z,989.60
2019-03-08T01:08:27.349Z,989.72
2019-03-08T01:09:27.328Z,989.70
2019-03-08T01:10:27.367Z,989.73
2019-03-08T01:11:27.319Z,989.64
2019-03-08T01:12:27.298Z,989.66
2019-03-08T01:13:27.284Z,989.67
2019-03-08T01:14:27.271Z,989.65
2019-03-08T01:15:27.338Z,989.70
2019-03-08T01:16:27.249Z,989.63
2019-03-08T01:17:27.242Z,989.62
2019-03-08T01:18:27.226Z,989.68
2019-03-08T01:19:27.222Z,989.61
2019-03-08T01:20:27.210Z,989.62
2019-03-08T01:21:27.217Z,989.67
2019-03-08T01:22:27.191Z,989.73
2019-03-08T01:23:27.176Z,989.57
2019-03-08T01:24:27.161Z,989.63
2019-03-08T01:25:27.152Z,989.62
2019-03-08T01:26:27.156Z,989.64
2019-03-08T01:27:27.137Z,989.75
2019-03-08T01:28:27.159Z,989.78
2019-03-08T01:29:27.114Z,989.67
2019-03-08T01:30:27.100Z,989.66
2019-03-08T01:31:27.139Z,989.56
2019-03-08T01:32:27.073Z,989.53
2019-03-08T01:33:27.068Z,989.55
2019-03-08T01:34:27.072Z,989.63
2019-03-08T01:35:27.057Z,989.64
2019-03-08T01:36:27.086Z,989.54
2019-03-08T01:37:27.065Z,989.56
2019-03-08T01:38:27.008Z,989.48
2019-03-08T01:39:27.001Z,989.62
2019-03-08T01:40:27.654Z,989.53
2019-03-08T01:41:26.974Z,989.68
2019-03-08T01:42:26.987Z,989.56
2019-03-08T01:43:26.973Z,989.58
2019-03-08T01:44:26.983Z,989.44
2019-03-08T01:45:26.934Z,989.52
2019-03-08T01:46:26.927Z,989.48
2019-03-08T01:47:26.944Z,989.54
2019-03-08T01:48:26.901Z,989.55
2019-03-08T01:49:26.902Z,989.51
2019-03-08T01:50:26.889Z,989.46
2019-03-08T01:51:26.869Z,989.57
2019-03-08T01:52:26.868Z,989.49
2019-03-08T01:53:26.861Z,989.52
2019-03-08T01:54:26.845Z,989.51
2019-03-08T01:55:26.824Z,989.49
2019-03-08T01:56:26.834Z,989.41
2019-03-08T01:57:26.800Z,989.37
2019-03-08T01:58:26.827Z,989.24
2019-03-08T01:59:26.784Z,989.37
2019-03-08T02:00:26.767Z,989.33
2019-03-08T02:01:26.766Z,989.36
2019-03-08T02:02:26.752Z,989.39
2019-03-08T02:03:26.764Z,989.44
2019-03-08T02:04:26.750Z,989.40
2019-03-08T02:05:26.713Z,989.35
2019-03-08T02:06:26.702Z,989.45
2019-03-08T02:07:26.692Z,989.42
2019-03-08T02:08:26.686Z,989.44
2019-03-08T02:09:26.700Z,989.47
2019-03-08T02:10:26.659Z,989.49
2019-03-08T02:11:26.652Z,989.45
2019-03-08T02:12:26.647Z,989.48
2019-03-08T02:13:26.636Z,989.43
2019-03-08T02:14:26.624Z,989.48
2019-03-08T02:15:26.625Z,989.32
2019-03-08T02:16:26.606Z,989.38
2019-03-08T02:17:26.582Z,989.44
2019-03-08T02:18:26.597Z,989.40
2019-03-08T02:19:26.567Z,989.36
2019-03-08T02:20:26.585Z,989.34
2019-03-08T02:21:26.546Z,989.34
2019-03-08T02:22:26.525Z,989.31
2019-03-08T02:23:26.518Z,989.30
2019-03-08T02:24:26.506Z,989.32
2019-03-08T02:25:26.523Z,989.36
2019-03-08T02:26:26.529Z,989.30
2019-03-08T02:27:26.485Z,989.30
2019-03-08T02:28:26.465Z,989.35
2019-03-08T02:29:26.451Z,989.25
2019-03-08T02:30:26.460Z,989.30
2019-03-08T02:31:26.457Z,989.33
2019-03-08T02:32:26.418Z,989.28
2019-03-08T02:33:26.417Z,989.36
2019-03-08T02:34:26.402Z,989.29
2019-03-08T02:35:26.381Z,989.34
2019-03-08T02:36:26.401Z,989.30
2019-03-08T02:37:26.394Z,989.33
2019-03-08T02:38:26.353Z,989.39
2019-03-08T02:39:26.348Z,989.30
2019-03-08T02:40:26.331Z,989.34
2019-03-08T02:41:26.316Z,989.30
2019-03-08T02:42:26.368Z,989.29
2019-03-08T02:43:26.296Z,989.37
2019-03-08T02:44:26.281Z,989.31
2019-03-08T02:45:26.282Z,989.33
2019-03-08T02:46:26.276Z,989.26
2019-03-08T02:47:26.259Z,989.22
2019-03-08T02:48:26.253Z,989.27
2019-03-08T02:49:26.260Z,989.28
2019-03-08T02:50:26.213Z,989.21
2019-03-08T02:51:26.208Z,989.23
2019-03-08T02:52:26.211Z,989.21
2019-03-08T02:53:26.243Z,989.20
2019-03-08T02:54:26.222Z,989.10
2019-03-08T02:55:26.177Z,989.16
2019-03-08T02:56:26.159Z,989.21
2019-03-08T02:57:26.160Z,989.23
2019-03-08T02:58:26.130Z,989.14
2019-03-08T02:59:26.120Z,989.19
2019-03-08T03:00:26.104Z,989.25
2019-03-08T03:01:26.107Z,989.15
2019-03-08T03:02:26.109Z,989.21
2019-03-08T03:03:26.078Z,989.18
2019-03-08T03:04:26.072Z,989.21
2019-03-08T03:05:26.050Z,989.22
2019-03-08T03:06:26.039Z,989.27
2019-03-08T03:07:26.104Z,989.26
2019-03-08T03:08:26.018Z,989.28
2019-03-08T03:09:26.006Z,989.23
2019-03-08T03:10:26.022Z,989.17
2019-03-08T03:11:25.983Z,989.26
2019-03-08T03:12:26.007Z,989.19
2019-03-08T03:13:25.964Z,989.19
2019-03-08T03:14:25.950Z,989.31
2019-03-08T03:15:25.938Z,989.25
2019-03-08T03:16:25.948Z,989.40
2019-03-08T03:17:25.939Z,989.33
2019-03-08T03:18:25.929Z,989.28
2019-03-08T03:19:25.905Z,989.30
2019-03-08T03:20:25.887Z,989.30
2019-03-08T03:21:25.879Z,989.28
2019-03-08T03:22:25.875Z,989.27
2019-03-08T03:23:25.905Z,989.27
2019-03-08T03:24:25.845Z,989.23
2019-03-08T03:25:25.827Z,989.23
2019-03-08T03:26:25.817Z,989.19
2019-03-08T03:27:25.829Z,989.29
2019-03-08T03:28:25.802Z,989.20
2019-03-08T03:29:25.816Z,989.29
2019-03-08T03:30:25.780Z,989.20
2019-03-08T03:31:25.779Z,989.25
2019-03-08T03:32:25.751Z,989.23
2019-03-08T03:33:25.759Z,989.23
2019-03-08T03:34:25.792Z,989.23
2019-03-08T03:35:25.720Z,989.29
2019-03-08T03:36:25.709Z,989.23
2019-03-08T03:37:25.706Z,989.28
2019-03-08T03:38:25.687Z,989.26
2019-03-08T03:39:25.674Z,989.38
2019-03-08T03:40:25.695Z,989.25
2019-03-08T03:41:25.656Z,989.25
2019-03-08T03:42:25.686Z,989.22
2019-03-08T03:43:25.631Z,989.23
2019-03-08T03:44:25.617Z,989.21
2019-03-08T03:45:25.639Z,989.22
2019-03-08T03:46:25.609Z,989.19
2019-03-08T03:47:25.601Z,989.11
2019-03-08T03:48:25.580Z,989.18
2019-03-08T03:49:25.569Z,989.23
2019-03-08T03:50:25.595Z,989.25
2019-03-08T03:51:25.548Z,989.20
2019-03-08T03:52:25.532Z,989.30
2019-03-08T03:53:25.521Z,989.34
2019-03-08T03:54:25.546Z,989.40
2019-03-08T03:55:25.497Z,989.36
2019-03-08T03:56:25.524Z,989.33
2019-03-08T03:57:25.478Z,989.44
2019-03-08T03:58:25.468Z,989.43
2019-03-08T03:59:25.452Z,989.41
2019-03-08T04:00:25.442Z,989.43
2019-03-08T04:01:25.462Z,989.37
2019-03-08T04:02:25.418Z,989.34
2019-03-08T04:03:25.446Z,989.27
2019-03-08T04:04:25.413Z,989.40
2019-03-08T04:05:25.392Z,989.31
2019-03-08T04:06:25.403Z,989.35
2019-03-08T04:07:25.409Z,989.28
2019-03-08T04:08:25.354Z,989.34
2019-03-08T04:09:25.342Z,989.40
2019-03-08T04:10:25.333Z,989.27
2019-03-08T04:11:25.343Z,989.38
2019-03-08T04:12:25.344Z,989.34
2019-03-08T04:13:25.321Z,989.31
2019-03-08T04:14:25.312Z,989.30
2019-03-08T04:15:25.277Z,989.24
2019-03-08T04:16:25.267Z,989.33
2019-03-08T04:17:25.254Z,989.25
2019-03-08T04:18:25.262Z,989.29
2019-03-08T04:19:25.230Z,989.37
2019-03-08T04:20:25.292Z,989.31
2019-03-08T04:21:25.222Z,989.38
2019-03-08T04:22:25.208Z,989.34
2019-03-08T04:23:25.222Z,989.39
2019-03-08T04:24:25.199Z,989.44
2019-03-08T04:25:25.165Z,989.46
2019-03-08T04:26:25.153Z,989.44
2019-03-08T04:27:25.143Z,989.41
2019-03-08T04:28:25.165Z,989.52
2019-03-08T04:29:25.142Z,989.48
2019-03-08T04:30:25.114Z,989.44
2019-03-08T04:31:25.105Z,989.45
2019-03-08T04:32:25.091Z,989.59
2019-03-08T04:33:25.075Z,989.60
2019-03-08T04:34:25.110Z,989.60
2019-03-08T04:35:25.069Z,989.58
2019-03-08T04:36:25.047Z,989.60
2019-03-08T04:37:25.037Z,989.65
2019-03-08T04:38:25.026Z,989.59
2019-03-08T04:39:25.013Z,989.61
2019-03-08T04:40:25.025Z,989.52
2019-03-08T04:41:25.022Z,989.66
2019-03-08T04:42:24.984Z,989.61
2019-03-08T04:43:24.974Z,989.56
2019-03-08T04:44:24.968Z,989.55
2019-03-08T04:45:25.004Z,989.57
2019-03-08T04:46:24.932Z,989.56
2019-03-08T04:47:24.923Z,989.65
2019-03-08T04:48:24.924Z,989.62
2019-03-08T04:49:24.916Z,989.66
2019-03-08T04:50:24.929Z,989.71
2019-03-08T04:51:24.879Z,989.67
2019-03-08T04:52:24.883Z,989.69
2019-03-08T04:53:24.868Z,989.65
2019-03-08T04:54:24.849Z,989.67
2019-03-08T04:55:24.838Z,989.67
2019-03-08T04:56:24.865Z,989.67
2019-03-08T04:57:24.817Z,989.65
2019-03-08T04:58:24.810Z,989.70
2019-03-08T04:59:24.803Z,989.63
2019-03-08T05:00:24.784Z,989.64
2019-03-08T05:01:24.807Z,989.67
2019-03-08T05:02:24.770Z,989.68
2019-03-08T05:03:24.791Z,989.69
2019-03-08T05:04:24.742Z,989.65
2019-03-08T05:05:24.749Z,989.73
2019-03-08T05:06:24.730Z,989.83
2019-03-08T05:07:24.728Z,989.74
2019-03-08T05:08:24.699Z,989.77
2019-03-08T05:09:24.684Z,989.83
2019-03-08T05:10:24.678Z,989.80
2019-03-08T05:11:24.665Z,989.80
2019-03-08T05:12:24.697Z,989.94
2019-03-08T05:13:24.645Z,989.85
2019-03-08T05:14:24.627Z,989.87
2019-03-08T05:15:24.618Z,989.83
2019-03-08T05:16:24.619Z,989.90
2019-03-08T05:17:24.612Z,989.90
2019-03-08T05:18:24.611Z,989.89
2019-03-08T05:19:24.582Z,989.96
2019-03-08T05:20:24.567Z,989.91
2019-03-08T05:21:24.547Z,989.91
2019-03-08T05:22:24.538Z,989.94
2019-03-08T05:23:24.572Z,989.94
2019-03-08T05:24:24.514Z,990.02
2019-03-08T05:25:24.503Z,989.95
2019-03-08T05:26:24.496Z,990.00
2019-03-08T05:27:24.480Z,990.00
2019-03-08T05:28:24.500Z,990.02
2019-03-08T05:29:24.486Z,990.05
2019-03-08T05:30:24.447Z,990.04
2019-03-08T05:31:24.435Z,990.01
2019-03-08T05:32:24.435Z,990.10
2019-03-08T05:33:24.418Z,989.99
2019-03-08T05:34:24.442Z,990.08
2019-03-08T05:35:24.398Z,990.14
2019-03-08T05:36:24.388Z,990.13
2019-03-08T05:37:24.376Z,990.08
2019-03-08T05:38:24.365Z,990.17
2019-03-08T05:39:24.379Z,990.13
2019-03-08T05:40:24.355Z,990.26
2019-03-08T05:41:24.328Z,990.20
2019-03-08T05:42:24.319Z,990.25
2019-03-08T05:43:24.307Z,990.23
2019-03-08T05:44:24.302Z,990.25
2019-03-08T05:45:24.317Z,990.21
2019-03-08T05:46:24.311Z,990.28
2019-03-08T05:47:24.263Z,990.33
2019-03-08T05:48:24.253Z,990.28
2019-03-08T05:49:24.239Z,990.33
2019-03-08T05:50:24.243Z,990.34
2019-03-08T05:51:24.234Z,990.33
2019-03-08T05:52:24.214Z,990.38
2019-03-08T05:53:24.195Z,990.42
2019-03-08T05:54:24.185Z,990.39
2019-03-08T05:55:24.199Z,990.37
2019-03-08T05:56:24.205Z,990.33
2019-03-08T05:57:24.158Z,990.43
2019-03-08T05:58:24.145Z,990.36
2019-03-08T05:59:24.133Z,990.41
2019-03-08T06:00:31.510Z,990.48
2019-03-08T06:01:25.140Z,990.45
2019-03-08T06:02:24.099Z,990.44
2019-03-08T06:03:24.099Z,990.39
2019-03-08T06:04:24.074Z,990.40
2019-03-08T06:05:24.066Z,990.52
2019-03-08T06:06:26.068Z,990.46
2019-03-08T06:07:24.066Z,990.52
2019-03-08T06:08:24.038Z,990.47
2019-03-08T06:09:24.023Z,990.47
2019-03-08T06:10:24.009Z,990.46
2019-03-08T06:11:23.997Z,990.44
2019-03-08T06:12:24.025Z,990.30
2019-03-08T06:13:23.973Z,990.47
2019-03-08T06:14:23.963Z,990.46
2019-03-08T06:15:23.956Z,990.42
2019-03-08T06:16:23.944Z,990.41
2019-03-08T06:17:23.930Z,990.52
2019-03-08T06:18:23.944Z,990.49
2019-03-08T06:19:23.910Z,990.47
2019-03-08T06:20:23.918Z,990.48
2019-03-08T06:21:23.886Z,990.51
2019-03-08T06:22:23.879Z,990.53
2019-03-08T06:23:23.913Z,990.55
2019-03-08T06:24:23.851Z,990.57
2019-03-08T06:25:23.843Z,990.57
2019-03-08T06:26:23.829Z,990.60
2019-03-08T06:27:23.862Z,990.65
2019-03-08T06:28:23.837Z,990.62
2019-03-08T06:29:23.819Z,990.60
2019-03-08T06:30:23.783Z,990.65
2019-03-08T06:31:23.779Z,990.64
2019-03-08T06:32:23.764Z,990.64
2019-03-08T06:33:23.751Z,990.72
2019-03-08T06:34:23.839Z,990.68
2019-03-08T06:35:23.736Z,990.69
2019-03-08T06:36:23.718Z,990.74
2019-03-08T06:37:23.710Z,990.80
2019-03-08T06:38:23.716Z,990.73
2019-03-08T06:39:23.686Z,990.84
2019-03-08T06:40:23.692Z,990.86
2019-03-08T06:41:23.671Z,990.84
2019-03-08T06:42:23.659Z,990.91
2019-03-08T06:43:23.643Z,990.87
2019-03-08T06:44:23.638Z,990.95
2019-03-08T06:45:23.648Z,990.93
2019-03-08T06:46:23.617Z,990.89
2019-03-08T06:47:23.597Z,991.00
2019-03-08T06:48:23.585Z,990.92
2019-03-08T06:49:23.581Z,991.05
2019-03-08T06:50:23.568Z,991.04
2019-03-08T06:51:23.580Z,991.04
2019-03-08T06:52:23.553Z,991.05
2019-03-08T06:53:23.536Z,991.09
2019-03-08T06:54:23.526Z,991.11
2019-03-08T06:55:23.512Z,991.21
2019-03-08T06:56:23.531Z,991.20
2019-03-08T06:57:23.496Z,991.08
2019-03-08T06:58:23.479Z,991.11
2019-03-08T06:59:23.471Z,991.23
2019-03-08T07:00:23.462Z,991.09
2019-03-08T07:01:23.522Z,991.13
2019-03-08T07:02:23.485Z,991.14
2019-03-08T07:03:23.428Z,991.19
2019-03-08T07:04:23.415Z,991.22
2019-03-08T07:05:23.402Z,991.21
2019-03-08T07:06:23.419Z,991.26
2019-03-08T07:07:23.415Z,991.30
2019-03-08T07:08:23.397Z,991.27
2019-03-08T07:09:23.368Z,991.36
2019-03-08T07:10:23.348Z,991.42
2019-03-08T07:11:23.343Z,991.33
2019-03-08T07:12:23.350Z,991.41
2019-03-08T07:13:23.345Z,991.29
2019-03-08T07:14:23.303Z,991.47
2019-03-08T07:15:23.295Z,991.45
2019-03-08T07:16:23.280Z,991.44
2019-03-08T07:17:23.269Z,991.58
2019-03-08T07:18:23.308Z,991.55
2019-03-08T07:19:23.257Z,991.48
2019-03-08T07:20:23.243Z,991.57
2019-03-08T07:21:23.229Z,991.57
2019-03-08T07:22:23.216Z,991.64
2019-03-08T07:23:27.951Z,991.65
2019-03-08T07:24:24.223Z,991.52
2019-03-08T07:25:23.188Z,991.67
2019-03-08T07:26:23.174Z,991.75
2019-03-08T07:27:23.173Z,991.74
2019-03-08T07:28:23.153Z,991.80
2019-03-08T07:29:23.159Z,991.89
2019-03-08T07:30:23.154Z,991.84
2019-03-08T07:31:23.124Z,991.88
2019-03-08T07:32:23.115Z,991.88
2019-03-08T07:33:23.134Z,991.94
2019-03-08T07:34:23.087Z,991.89
2019-03-08T07:35:23.116Z,992.01
2019-03-08T07:36:24.784Z,991.97
2019-03-08T07:37:23.055Z,992.06
2019-03-08T07:38:23.046Z,992.10
2019-03-08T07:39:23.056Z,992.02
2019-03-08T07:40:23.020Z,992.12
2019-03-08T07:41:23.022Z,992.11
2019-03-08T07:42:23.004Z,992.22
2019-03-08T07:43:22.996Z,992.17
2019-03-08T07:44:23.020Z,992.21
2019-03-08T07:45:22.968Z,992.26
2019-03-08T07:46:22.961Z,992.24
2019-03-08T07:47:22.943Z,992.30
2019-03-08T07:48:22.944Z,992.29
2019-03-08T07:49:24.001Z,992.28
2019-03-08T07:50:22.949Z,992.25
2019-03-08T07:51:22.903Z,992.32
2019-03-08T07:52:22.894Z,992.45
2019-03-08T07:53:22.898Z,992.26
2019-03-08T07:54:22.873Z,992.44
2019-03-08T07:55:22.859Z,992.43
2019-03-08T07:56:22.882Z,992.55
2019-03-08T07:57:22.837Z,992.52
2019-03-08T07:58:22.865Z,992.59
2019-03-08T07:59:22.834Z,992.57
2019-03-08T08:00:22.805Z,992.54
2019-03-08T08:01:22.795Z,992.60
2019-03-08T08:02:22.800Z,992.69
2019-03-08T08:03:22.768Z,992.67
2019-03-08T08:04:23.538Z,992.72
2019-03-08T08:05:22.772Z,992.63
2019-03-08T08:06:22.739Z,992.66
2019-03-08T08:07:22.743Z,992.74
2019-03-08T08:08:22.734Z,992.80
2019-03-08T08:09:22.703Z,992.82
2019-03-08T08:10:22.717Z,992.73
2019-03-08T08:11:22.687Z,992.84
2019-03-08T08:12:22.672Z,992.75
2019-03-08T08:13:22.675Z,992.81
2019-03-08T08:14:22.666Z,992.92
2019-03-08T08:15:22.673Z,992.88
2019-03-08T08:16:22.649Z,992.95
2019-03-08T08:17:22.620Z,992.98
2019-03-08T08:18:22.611Z,993.00
2019-03-08T08:19:22.666Z,992.99
2019-03-08T08:20:22.588Z,993.09
2019-03-08T08:21:22.573Z,993.01
2019-03-08T08:22:22.583Z,993.08
2019-03-08T08:23:22.572Z,993.04
2019-03-08T08:24:22.583Z,993.19
2019-03-08T08:25:22.533Z,993.21
2019-03-08T08:26:22.524Z,993.26
2019-03-08T08:27:22.505Z,993.24
2019-03-08T08:28:22.556Z,993.30
2019-03-08T08:29:22.506Z,993.50
2019-03-08T08:30:22.477Z,993.58
2019-03-08T08:31:22.496Z,993.49
2019-03-08T08:32:22.453Z,993.52
2019-03-08T08:33:22.446Z,993.56
2019-03-08T08:34:22.499Z,993.57
2019-03-08T08:35:22.424Z,993.64
2019-03-08T08:36:22.407Z,993.60
2019-03-08T08:37:22.406Z,993.72
2019-03-08T08:38:22.410Z,993.76
2019-03-08T08:39:22.394Z,993.78
2019-03-08T08:40:22.395Z,993.85
2019-03-08T08:41:22.366Z,993.86
2019-03-08T08:42:22.346Z,993.91
2019-03-08T08:43:22.337Z,993.91
2019-03-08T08:44:22.340Z,993.93
2019-03-08T08:45:22.583Z,993.97
2019-03-08T08:46:22.321Z,993.98
2019-03-08T08:47:22.382Z,994.00
2019-03-08T08:48:22.289Z,994.01
2019-03-08T08:49:22.298Z,994.08
2019-03-08T08:50:22.290Z,994.13
2019-03-08T08:51:22.287Z,994.08
2019-03-08T08:52:22.246Z,994.08
2019-03-08T08:53:22.291Z,994.15
2019-03-08T08:54:22.220Z,994.24
2019-03-08T08:55:22.206Z,994.22
2019-03-08T08:56:22.220Z,994.23
2019-03-08T08:57:22.185Z,994.36
2019-03-08T08:58:22.176Z,994.43
2019-03-08T08:59:22.164Z,994.49
2019-03-08T09:00:22.150Z,994.39
2019-03-08T09:01:22.139Z,994.51
2019-03-08T09:02:22.145Z,994.42
2019-03-08T09:03:22.117Z,994.47
2019-03-08T09:04:22.124Z,994.54
2019-03-08T09:05:22.095Z,994.57
2019-03-08T09:06:22.082Z,994.67
2019-03-08T09:07:22.112Z,994.74
2019-03-08T09:08:22.069Z,994.65
2019-03-08T09:09:22.055Z,994.75
2019-03-08T09:10:22.532Z,994.81
2019-03-08T09:11:22.029Z,994.74
2019-03-08T09:12:22.022Z,994.85
2019-03-08T09:13:22.035Z,994.84
2019-03-08T09:14:22.001Z,994.88
2019-03-08T09:15:22.003Z,994.87
2019-03-08T09:16:21.980Z,994.97
2019-03-08T09:17:21.976Z,994.92
2019-03-08T09:18:21.965Z,995.02
2019-03-08T09:19:21.945Z,995.03
2019-03-08T09:20:21.968Z,994.94
2019-03-08T09:21:21.921Z,995.03
2019-03-08T09:22:21.921Z,995.02
2019-03-08T09:23:21.905Z,995.12
2019-03-08T09:24:21.919Z,995.12
2019-03-08T09:25:21.887Z,995.05
2019-03-08T09:26:21.885Z,995.09
2019-03-08T09:27:21.853Z,995.12
2019-03-08T09:28:21.841Z,995.04
2019-03-08T09:29:21.902Z,995.16
2019-03-08T09:30:21.842Z,995.21
2019-03-08T09:31:21.810Z,995.19
2019-03-08T09:32:21.805Z,995.24
2019-03-08T09:33:21.816Z,995.21
2019-03-08T09:34:21.777Z,995.29
2019-03-08T09:35:21.794Z,995.31
2019-03-08T09:36:21.766Z,995.36
2019-03-08T09:37:21.746Z,995.28
2019-03-08T09:38:21.733Z,995.43
2019-03-08T09:39:21.742Z,995.28
2019-03-08T09:40:21.752Z,995.39
2019-03-08T09:41:21.700Z,995.29
2019-03-08T09:42:21.700Z,995.34
2019-03-08T09:43:21.682Z,995.33
2019-03-08T09:44:21.666Z,995.39
2019-03-08T09:45:21.679Z,995.48
2019-03-08T09:46:21.685Z,995.40
2019-03-08T09:47:21.643Z,995.49
2019-03-08T09:48:21.632Z,995.45
2019-03-08T09:49:21.614Z,995.42
2019-03-08T09:50:21.642Z,995.46
2019-03-08T09:51:21.592Z,995.51
2019-03-08T09:52:21.580Z,995.52
2019-03-08T09:53:21.568Z,995.49
2019-03-08T09:54:21.576Z,995.46
2019-03-08T09:55:22.468Z,995.45
2019-03-08T09:56:21.569Z,995.37
2019-03-08T09:57:21.530Z,995.46
2019-03-08T09:58:21.521Z,995.51
2019-03-08T09:59:21.506Z,995.44
2019-03-08T10:00:21.522Z,995.45
2019-03-08T10:01:21.490Z,995.50
2019-03-08T10:02:21.470Z,995.53
2019-03-08T10:03:21.470Z,995.58
2019-03-08T10:04:21.453Z,995.46
2019-03-08T10:05:21.469Z,995.58
2019-03-08T10:06:21.425Z,995.66
2019-03-08T10:07:21.468Z,995.49
2019-03-08T10:08:21.409Z,995.59
2019-03-08T10:09:21.395Z,995.69
2019-03-08T10:10:21.381Z,995.58
2019-03-08T10:11:21.396Z,995.56
2019-03-08T10:12:21.366Z,995.63
2019-03-08T10:13:21.350Z,995.60
2019-03-08T10:14:21.351Z,995.52
2019-03-08T10:15:21.409Z,995.65
2019-03-08T10:16:21.324Z,995.64
2019-03-08T10:17:21.306Z,995.66
2019-03-08T10:18:21.299Z,995.66
2019-03-08T10:19:21.291Z,995.72
2019-03-08T10:20:21.324Z,995.74
2019-03-08T10:21:21.300Z,995.70
2019-03-08T10:22:21.254Z,995.80
2019-03-08T10:23:21.243Z,995.64
2019-03-08T10:24:21.237Z,995.72
2019-03-08T10:25:21.255Z,995.82
2019-03-08T10:26:21.230Z,995.84
2019-03-08T10:27:21.206Z,995.85
2019-03-08T10:28:21.187Z,995.81
2019-03-08T10:29:21.205Z,995.86
2019-03-08T10:30:21.308Z,995.96
2019-03-08T10:31:21.158Z,995.94
2019-03-08T10:32:21.171Z,995.93
2019-03-08T10:33:21.135Z,995.92
2019-03-08T10:34:21.126Z,995.95
2019-03-08T10:35:24.018Z,995.99
2019-03-08T10:36:21.103Z,996.01
2019-03-08T10:37:21.165Z,995.95
2019-03-08T10:38:22.879Z,995.94
2019-03-08T10:39:21.067Z,995.98
2019-03-08T10:40:21.062Z,995.95
2019-03-08T10:41:21.046Z,996.05
2019-03-08T10:42:21.059Z,995.89
2019-03-08T10:43:21.027Z,995.97
2019-03-08T10:44:21.037Z,996.04
2019-03-08T10:45:21.003Z,996.13
2019-03-08T10:46:20.994Z,996.11
2019-03-08T10:47:21.000Z,996.06
2019-03-08T10:48:20.971Z,996.01
2019-03-08T10:49:20.962Z,996.13
2019-03-08T10:50:20.947Z,996.08
2019-03-08T10:51:20.935Z,996.16
2019-03-08T10:52:20.961Z,996.18
2019-03-08T10:53:20.933Z,996.12
2019-03-08T10:54:20.918Z,996.08
2019-03-08T10:55:20.900Z,996.20
2019-03-08T10:56:20.886Z,996.15
2019-03-08T10:57:20.870Z,996.08
2019-03-08T10:58:20.884Z,996.13
2019-03-08T10:59:20.851Z,996.18
2019-03-08T11:00:20.904Z,996.17
2019-03-08T11:01:20.851Z,996.11
2019-03-08T11:02:20.824Z,996.17
2019-03-08T11:03:20.850Z,996.17
2019-03-08T11:04:20.807Z,996.27
2019-03-08T11:05:20.826Z,996.23
2019-03-08T11:06:20.783Z,996.18
2019-03-08T11:07:20.775Z,996.16
2019-03-08T11:08:29.317Z,996.20
2019-03-08T11:09:21.973Z,996.24
2019-03-08T11:10:20.742Z,996.39
2019-03-08T11:11:20.740Z,996.33
2019-03-08T11:12:20.723Z,996.26
2019-03-08T11:13:20.697Z,996.32
2019-03-08T11:14:20.736Z,996.29
2019-03-08T11:15:24.537Z,996.33
2019-03-08T11:16:20.680Z,996.39
2019-03-08T11:17:20.654Z,996.39
2019-03-08T11:18:20.642Z,996.39
2019-03-08T11:19:20.635Z,996.41
2019-03-08T11:20:20.645Z,996.33
2019-03-08T11:21:20.635Z,996.46
2019-03-08T11:22:20.601Z,996.38
2019-03-08T11:23:20.586Z,996.40
2019-03-08T11:24:21.420Z,996.44
2019-03-08T11:25:20.592Z,996.41
2019-03-08T11:26:20.572Z,996.38
2019-03-08T11:27:20.545Z,996.46
2019-03-08T11:28:21.274Z,996.56
2019-03-08T11:29:20.522Z,996.49
2019-03-08T11:30:21.817Z,996.54
2019-03-08T11:31:20.501Z,996.47
2019-03-08T11:32:23.269Z,996.66
2019-03-08T11:33:20.486Z,996.59
2019-03-08T11:34:20.469Z,996.58
2019-03-08T11:35:20.458Z,996.57
2019-03-08T11:36:20.448Z,996.55
2019-03-08T11:37:20.438Z,996.66
2019-03-08T11:38:20.456Z,996.59
2019-03-08T11:39:20.415Z,996.73
2019-03-08T11:40:20.405Z,996.77
2019-03-08T11:41:20.400Z,996.76
2019-03-08T11:42:20.390Z,996.76
2019-03-08T11:43:20.408Z,996.79
2019-03-08T11:44:20.365Z,996.72
2019-03-08T11:45:20.355Z,996.73
2019-03-08T11:46:20.352Z,996.78
2019-03-08T11:47:20.330Z,996.80
2019-03-08T11:48:20.334Z,996.76
2019-03-08T11:49:20.341Z,996.79
2019-03-08T11:50:20.296Z,996.76
2019-03-08T11:51:20.329Z,996.88
2019-03-08T11:52:20.280Z,996.77
2019-03-08T11:53:20.307Z,996.82
2019-03-08T11:54:20.252Z,996.89
2019-03-08T11:55:20.248Z,996.84
2019-03-08T11:56:20.230Z,996.90
2019-03-08T11:57:20.228Z,996.83
2019-03-08T11:58:20.240Z,996.83
2019-03-08T11:59:20.207Z,996.89
2019-03-08T12:00:20.184Z,996.73
2019-03-08T12:01:20.173Z,996.83
2019-03-08T12:02:20.170Z,996.88
2019-03-08T12:03:20.191Z,996.90
2019-03-08T12:04:20.141Z,996.86
2019-03-08T12:05:20.149Z,996.94
2019-03-08T12:06:20.121Z,996.89
2019-03-08T12:07:20.110Z,996.97
2019-03-08T12:08:20.100Z,996.91
2019-03-08T12:09:20.109Z,996.94
2019-03-08T12:10:20.073Z,997.04
2019-03-08T12:11:20.066Z,997.01
2019-03-08T12:12:20.053Z,996.99
2019-03-08T12:13:20.097Z,997.10
2019-03-08T12:14:20.041Z,997.17
2019-03-08T12:15:20.044Z,997.25
2019-03-08T12:16:20.009Z,997.22
2019-03-08T12:17:20.030Z,997.30
2019-03-08T12:18:20.031Z,997.25
2019-03-08T12:19:19.980Z,997.32
2019-03-08T12:20:19.972Z,997.38
2019-03-08T12:21:19.964Z,997.45
2019-03-08T12:22:19.947Z,997.41
2019-03-08T12:23:19.938Z,997.40
2019-03-08T12:24:19.953Z,997.48
2019-03-08T12:25:19.911Z,997.40
2019-03-08T12:26:19.927Z,997.29
2019-03-08T12:27:19.894Z,997.42
2019-03-08T12:28:19.915Z,997.42